sensor_id;sensor_type;location;lat;lon;timestamp;pressure;altitude;pressure_sealevel;temperature;humidity
65872;BME280;52653;50.080;21.992;2023-02-12T00:01:29;100109.20;;;3.36;92.01
65872;BME280;52653;50.080;21.992;2023-02-12T00:04:22;100105.88;;;3.40;91.96
65872;BME280;52653;50.080;21.992;2023-02-12T00:07:15;100106.76;;;3.45;92.01
65872;BME280;52653;50.080;21.992;2023-02-12T00:10:08;100110.66;;;3.48;91.71
65872;BME280;52653;50.080;21.992;2023-02-12T00:13:01;100117.11;;;3.49;91.74
65872;BME280;52653;50.080;21.992;2023-02-12T00:15:54;100118.48;;;3.48;92.00
65872;BME280;52653;50.080;21.992;2023-02-12T00:18:47;100124.52;;;3.47;91.95
65872;BME280;52653;50.080;21.992;2023-02-12T00:21:39;100129.98;;;3.45;92.34
65872;BME280;52653;50.080;21.992;2023-02-12T00:24:34;100124.15;;;3.42;92.70
65872;BME280;52653;50.080;21.992;2023-02-12T00:27:26;100126.61;;;3.38;92.84
65872;BME280;52653;50.080;21.992;2023-02-12T00:30:19;100118.33;;;3.34;92.79
65872;BME280;52653;50.080;21.992;2023-02-12T00:33:12;100113.23;;;3.32;92.86
65872;BME280;52653;50.080;21.992;2023-02-12T00:36:07;100122.57;;;3.31;93.32
65872;BME280;52653;50.080;21.992;2023-02-12T00:39:01;100135.72;;;3.31;93.47
65872;BME280;52653;50.080;21.992;2023-02-12T00:41:53;100139.88;;;3.31;93.44
65872;BME280;52653;50.080;21.992;2023-02-12T00:44:46;100140.79;;;3.32;93.54
65872;BME280;52653;50.080;21.992;2023-02-12T00:47:39;100144.36;;;3.35;93.29
65872;BME280;52653;50.080;21.992;2023-02-12T00:50:32;100156.27;;;3.38;93.27
65872;BME280;52653;50.080;21.992;2023-02-12T00:53:25;100161.05;;;3.42;93.20
65872;BME280;52653;50.080;21.992;2023-02-12T00:56:19;100164.40;;;3.47;93.07
65872;BME280;52653;50.080;21.992;2023-02-12T00:59:11;100162.23;;;3.50;93.00
65872;BME280;52653;50.080;21.992;2023-02-12T01:02:04;100162.50;;;3.52;92.75
65872;BME280;52653;50.080;21.992;2023-02-12T01:04:57;100160.37;;;3.51;92.71
65872;BME280;52653;50.080;21.992;2023-02-12T01:07:43;100161.95;;;3.46;92.88
65872;BME280;52653;50.080;21.992;2023-02-12T01:10:40;100164.06;;;3.43;92.93
65872;BME280;52653;50.080;21.992;2023-02-12T01:13:35;100164.53;;;3.46;93.09
65872;BME280;52653;50.080;21.992;2023-02-12T01:16:28;100169.27;;;3.48;92.82
65872;BME280;52653;50.080;21.992;2023-02-12T01:19:17;100172.02;;;3.47;92.68
65872;BME280;52653;50.080;21.992;2023-02-12T01:22:10;100171.56;;;3.44;92.69
65872;BME280;52653;50.080;21.992;2023-02-12T01:25:04;100178.88;;;3.44;92.72
65872;BME280;52653;50.080;21.992;2023-02-12T01:27:58;100188.17;;;3.48;92.62
65872;BME280;52653;50.080;21.992;2023-02-12T01:30:51;100196.99;;;3.52;92.51
65872;BME280;52653;50.080;21.992;2023-02-12T01:33:48;100195.00;;;3.54;92.47
65872;BME280;52653;50.080;21.992;2023-02-12T01:36:42;100207.05;;;3.52;92.30
65872;BME280;52653;50.080;21.992;2023-02-12T01:39:36;100199.91;;;3.46;92.28
65872;BME280;52653;50.080;21.992;2023-02-12T01:42:29;100199.73;;;3.42;92.34
65872;BME280;52653;50.080;21.992;2023-02-12T01:45:50;100205.86;;;3.39;92.41
65872;BME280;52653;50.080;21.992;2023-02-12T01:48:48;100213.31;;;3.39;92.49
65872;BME280;52653;50.080;21.992;2023-02-12T01:51:41;100212.75;;;3.37;92.55
65872;BME280;52653;50.080;21.992;2023-02-12T01:54:35;100210.27;;;3.36;92.74
65872;BME280;52653;50.080;21.992;2023-02-12T01:57:31;100209.92;;;3.36;92.89
65872;BME280;52653;50.080;21.992;2023-02-12T02:00:28;100208.95;;;3.38;92.92
65872;BME280;52653;50.080;21.992;2023-02-12T02:03:20;100209.55;;;3.40;93.04
65872;BME280;52653;50.080;21.992;2023-02-12T02:06:16;100211.60;;;3.43;92.62
65872;BME280;52653;50.080;21.992;2023-02-12T02:09:12;100214.89;;;3.48;92.47
65872;BME280;52653;50.080;21.992;2023-02-12T02:12:06;100223.98;;;3.55;92.51
65872;BME280;52653;50.080;21.992;2023-02-12T02:15:17;100234.00;;;3.64;92.23
65872;BME280;52653;50.080;21.992;2023-02-12T02:18:12;100243.08;;;3.69;92.09
65872;BME280;52653;50.080;21.992;2023-02-12T02:21:38;100250.73;;;3.70;91.53
65872;BME280;52653;50.080;21.992;2023-02-12T02:24:55;100254.68;;;3.74;91.59
65872;BME280;52653;50.080;21.992;2023-02-12T02:27:59;100257.80;;;3.69;91.24
65872;BME280;52653;50.080;21.992;2023-02-12T02:30:56;100265.20;;;3.53;91.55
65872;BME280;52653;50.080;21.992;2023-02-12T02:33:54;100272.92;;;3.46;91.75
65872;BME280;52653;50.080;21.992;2023-02-12T02:36:52;100271.27;;;3.44;91.90
65872;BME280;52653;50.080;21.992;2023-02-12T02:39:53;100282.25;;;3.45;91.96
65872;BME280;52653;50.080;21.992;2023-02-12T02:42:53;100283.21;;;3.43;91.97
65872;BME280;52653;50.080;21.992;2023-02-12T02:45:49;100286.02;;;3.44;91.79
65872;BME280;52653;50.080;21.992;2023-02-12T02:48:47;100294.19;;;3.49;91.70
65872;BME280;52653;50.080;21.992;2023-02-12T02:51:44;100295.02;;;3.53;91.43
65872;BME280;52653;50.080;21.992;2023-02-12T02:54:41;100301.57;;;3.56;91.31
65872;BME280;52653;50.080;21.992;2023-02-12T02:57:40;100303.20;;;3.63;91.13
65872;BME280;52653;50.080;21.992;2023-02-12T03:00:39;100307.89;;;3.63;90.67
65872;BME280;52653;50.080;21.992;2023-02-12T03:03:39;100315.55;;;3.59;90.43
65872;BME280;52653;50.080;21.992;2023-02-12T03:06:37;100324.59;;;3.59;90.45
65872;BME280;52653;50.080;21.992;2023-02-12T03:09:39;100331.72;;;3.60;90.47
65872;BME280;52653;50.080;21.992;2023-02-12T03:12:37;100349.35;;;3.58;90.12
65872;BME280;52653;50.080;21.992;2023-02-12T03:15:37;100353.56;;;3.50;89.84
65872;BME280;52653;50.080;21.992;2023-02-12T03:18:32;100362.73;;;3.45;89.85
65872;BME280;52653;50.080;21.992;2023-02-12T03:21:32;100364.77;;;3.40;89.62
65872;BME280;52653;50.080;21.992;2023-02-12T03:24:30;100366.08;;;3.38;89.53
65872;BME280;52653;50.080;21.992;2023-02-12T03:27:30;100371.19;;;3.36;89.52
65872;BME280;52653;50.080;21.992;2023-02-12T03:30:17;100374.38;;;3.38;89.52
65872;BME280;52653;50.080;21.992;2023-02-12T03:33:19;100381.65;;;3.42;89.40
65872;BME280;52653;50.080;21.992;2023-02-12T03:36:21;100397.08;;;3.41;88.99
65872;BME280;52653;50.080;21.992;2023-02-12T03:39:27;100407.53;;;3.39;88.79
65872;BME280;52653;50.080;21.992;2023-02-12T03:42:34;100419.46;;;3.29;86.79
65872;BME280;52653;50.080;21.992;2023-02-12T03:45:37;100426.79;;;3.09;84.85
65872;BME280;52653;50.080;21.992;2023-02-12T03:48:40;100444.75;;;2.88;84.15
65872;BME280;52653;50.080;21.992;2023-02-12T03:51:37;100461.47;;;2.62;83.54
65872;BME280;52653;50.080;21.992;2023-02-12T03:54:32;100474.23;;;2.37;83.66
65872;BME280;52653;50.080;21.992;2023-02-12T03:57:28;100483.45;;;2.20;84.23
65872;BME280;52653;50.080;21.992;2023-02-12T04:00:26;100489.55;;;2.09;84.25
65872;BME280;52653;50.080;21.992;2023-02-12T04:03:19;100494.73;;;2.02;84.39
65872;BME280;52653;50.080;21.992;2023-02-12T04:06:24;100500.61;;;1.98;84.07
65872;BME280;52653;50.080;21.992;2023-02-12T04:09:19;100500.98;;;1.95;84.07
65872;BME280;52653;50.080;21.992;2023-02-12T04:12:38;100507.46;;;1.93;83.75
65872;BME280;52653;50.080;21.992;2023-02-12T04:15:59;100512.27;;;1.89;83.71
65872;BME280;52653;50.080;21.992;2023-02-12T04:18:54;100525.45;;;1.82;83.81
65872;BME280;52653;50.080;21.992;2023-02-12T04:21:54;100535.30;;;1.75;83.97
65872;BME280;52653;50.080;21.992;2023-02-12T04:25:02;100541.56;;;1.68;83.84
65872;BME280;52653;50.080;21.992;2023-02-12T04:28:24;100554.35;;;1.62;83.13
65872;BME280;52653;50.080;21.992;2023-02-12T04:31:26;100561.95;;;1.58;83.34
65872;BME280;52653;50.080;21.992;2023-02-12T04:34:28;100570.10;;;1.54;82.92
65872;BME280;52653;50.080;21.992;2023-02-12T04:37:27;100574.45;;;1.52;82.91
65872;BME280;52653;50.080;21.992;2023-02-12T04:40:23;100582.73;;;1.48;83.03
65872;BME280;52653;50.080;21.992;2023-02-12T04:43:32;100593.52;;;1.42;83.28
65872;BME280;52653;50.080;21.992;2023-02-12T04:46:27;100606.73;;;1.34;83.00
65872;BME280;52653;50.080;21.992;2023-02-12T04:49:22;100602.06;;;1.27;82.82
65872;BME280;52653;50.080;21.992;2023-02-12T04:52:16;100604.33;;;1.25;83.09
65872;BME280;52653;50.080;21.992;2023-02-12T04:55:16;100614.84;;;1.24;83.07
65872;BME280;52653;50.080;21.992;2023-02-12T04:58:10;100610.94;;;1.25;83.08
65872;BME280;52653;50.080;21.992;2023-02-12T05:01:05;100612.80;;;1.25;83.16
65872;BME280;52653;50.080;21.992;2023-02-12T05:03:58;100629.33;;;1.23;83.46
65872;BME280;52653;50.080;21.992;2023-02-12T05:06:52;100616.00;;;1.19;83.05
65872;BME280;52653;50.080;21.992;2023-02-12T05:09:37;100619.45;;;1.12;82.74
65872;BME280;52653;50.080;21.992;2023-02-12T05:12:30;100621.73;;;1.07;82.75
65872;BME280;52653;50.080;21.992;2023-02-12T05:15:26;100621.09;;;1.04;82.72
65872;BME280;52653;50.080;21.992;2023-02-12T05:18:19;100631.42;;;1.04;82.73
65872;BME280;52653;50.080;21.992;2023-02-12T05:21:17;100641.27;;;1.04;82.56
65872;BME280;52653;50.080;21.992;2023-02-12T05:24:10;100646.10;;;1.04;82.02
65872;BME280;52653;50.080;21.992;2023-02-12T05:27:06;100648.60;;;1.02;81.45
65872;BME280;52653;50.080;21.992;2023-02-12T05:29:39;100654.66;;;1.00;81.67
65872;BME280;52653;50.080;21.992;2023-02-12T05:35:25;100671.55;;;0.89;81.83
65872;BME280;52653;50.080;21.992;2023-02-12T05:38:11;100682.45;;;0.86;81.95
65872;BME280;52653;50.080;21.992;2023-02-12T05:41:06;100685.30;;;0.84;81.92
65872;BME280;52653;50.080;21.992;2023-02-12T05:44:00;100690.25;;;0.87;81.84
65872;BME280;52653;50.080;21.992;2023-02-12T05:46:53;100695.38;;;0.89;81.86
65872;BME280;52653;50.080;21.992;2023-02-12T05:49:46;100706.73;;;0.88;81.78
65872;BME280;52653;50.080;21.992;2023-02-12T05:52:39;100719.62;;;0.84;81.87
65872;BME280;52653;50.080;21.992;2023-02-12T05:55:22;100728.45;;;0.81;82.27
65872;BME280;52653;50.080;21.992;2023-02-12T05:58:07;100737.78;;;0.78;82.41
65872;BME280;52653;50.080;21.992;2023-02-12T06:01:01;100747.20;;;0.74;82.58
65872;BME280;52653;50.080;21.992;2023-02-12T06:03:55;100753.09;;;0.74;82.61
65872;BME280;52653;50.080;21.992;2023-02-12T06:06:46;100759.75;;;0.76;82.05
65872;BME280;52653;50.080;21.992;2023-02-12T06:09:39;100763.39;;;0.78;81.19
65872;BME280;52653;50.080;21.992;2023-02-12T06:12:25;100769.48;;;0.83;80.89
65872;BME280;52653;50.080;21.992;2023-02-12T06:15:18;100769.46;;;0.86;80.86
65872;BME280;52653;50.080;21.992;2023-02-12T06:18:11;100774.33;;;0.86;80.64
65872;BME280;52653;50.080;21.992;2023-02-12T06:21:07;100780.73;;;0.83;80.17
65872;BME280;52653;50.080;21.992;2023-02-12T06:24:00;100790.92;;;0.80;80.39
65872;BME280;52653;50.080;21.992;2023-02-12T06:26:54;100799.59;;;0.77;79.84
65872;BME280;52653;50.080;21.992;2023-02-12T06:29:47;100803.09;;;0.79;79.14
65872;BME280;52653;50.080;21.992;2023-02-12T06:32:40;100809.34;;;0.82;77.57
65872;BME280;52653;50.080;21.992;2023-02-12T06:35:35;100818.57;;;0.83;76.20
65872;BME280;52653;50.080;21.992;2023-02-12T06:38:28;100820.58;;;0.85;75.96
65872;BME280;52653;50.080;21.992;2023-02-12T06:41:21;100820.34;;;0.84;75.72
65872;BME280;52653;50.080;21.992;2023-02-12T06:44:15;100826.66;;;0.86;75.58
65872;BME280;52653;50.080;21.992;2023-02-12T06:47:08;100831.04;;;0.87;76.03
65872;BME280;52653;50.080;21.992;2023-02-12T06:50:02;100842.67;;;0.88;76.39
65872;BME280;52653;50.080;21.992;2023-02-12T06:52:54;100840.85;;;0.89;76.86
65872;BME280;52653;50.080;21.992;2023-02-12T06:55:49;100837.20;;;0.89;76.90
65872;BME280;52653;50.080;21.992;2023-02-12T06:58:43;100840.83;;;0.86;76.60
65872;BME280;52653;50.080;21.992;2023-02-12T07:01:38;100844.13;;;0.90;76.69
65872;BME280;52653;50.080;21.992;2023-02-12T07:04:25;100847.70;;;0.95;76.67
65872;BME280;52653;50.080;21.992;2023-02-12T07:07:18;100855.99;;;0.98;75.04
65872;BME280;52653;50.080;21.992;2023-02-12T07:10:06;100855.77;;;1.03;74.34
65872;BME280;52653;50.080;21.992;2023-02-12T07:12:59;100861.67;;;1.09;74.04
65872;BME280;52653;50.080;21.992;2023-02-12T07:15:52;100864.60;;;1.15;74.49
65872;BME280;52653;50.080;21.992;2023-02-12T07:18:46;100872.23;;;1.16;73.55
65872;BME280;52653;50.080;21.992;2023-02-12T07:21:39;100878.08;;;1.12;73.63
65872;BME280;52653;50.080;21.992;2023-02-12T07:24:32;100875.77;;;1.11;74.58
65872;BME280;52653;50.080;21.992;2023-02-12T07:27:26;100876.69;;;1.12;74.44
65872;BME280;52653;50.080;21.992;2023-02-12T07:30:19;100873.60;;;1.13;74.67
65872;BME280;52653;50.080;21.992;2023-02-12T07:33:12;100875.17;;;1.13;73.75
65872;BME280;52653;50.080;21.992;2023-02-12T07:36:07;100873.80;;;1.16;73.55
65872;BME280;52653;50.080;21.992;2023-02-12T07:39:01;100873.23;;;1.18;73.92
65872;BME280;52653;50.080;21.992;2023-02-12T07:41:54;100876.39;;;1.22;73.94
65872;BME280;52653;50.080;21.992;2023-02-12T07:44:48;100876.20;;;1.28;73.80
65872;BME280;52653;50.080;21.992;2023-02-12T07:47:41;100872.14;;;1.36;73.87
65872;BME280;52653;50.080;21.992;2023-02-12T07:50:34;100883.33;;;1.44;73.53
65872;BME280;52653;50.080;21.992;2023-02-12T07:53:27;100887.28;;;1.47;73.33
65872;BME280;52653;50.080;21.992;2023-02-12T07:56:15;100887.98;;;1.50;73.63
65872;BME280;52653;50.080;21.992;2023-02-12T07:59:12;100886.31;;;1.57;73.64
65872;BME280;52653;50.080;21.992;2023-02-12T08:02:05;100890.66;;;1.61;72.98
65872;BME280;52653;50.080;21.992;2023-02-12T08:04:59;100895.05;;;1.59;71.60
65872;BME280;52653;50.080;21.992;2023-02-12T08:07:52;100896.30;;;1.60;71.89
65872;BME280;52653;50.080;21.992;2023-02-12T08:10:45;100899.75;;;1.66;71.24
65872;BME280;52653;50.080;21.992;2023-02-12T08:13:39;100898.62;;;1.74;71.04
65872;BME280;52653;50.080;21.992;2023-02-12T08:16:19;100910.11;;;1.81;70.78
65872;BME280;52653;50.080;21.992;2023-02-12T08:19:13;100910.73;;;1.87;70.91
65872;BME280;52653;50.080;21.992;2023-02-12T08:22:04;100913.92;;;1.94;71.28
65872;BME280;52653;50.080;21.992;2023-02-12T08:24:58;100913.82;;;2.02;70.75
65872;BME280;52653;50.080;21.992;2023-02-12T08:27:51;100910.61;;;2.06;69.73
65872;BME280;52653;50.080;21.992;2023-02-12T08:30:44;100910.58;;;2.09;68.85
65872;BME280;52653;50.080;21.992;2023-02-12T08:33:37;100917.48;;;2.09;68.75
65872;BME280;52653;50.080;21.992;2023-02-12T08:36:34;100924.41;;;2.12;69.23
65872;BME280;52653;50.080;21.992;2023-02-12T08:39:29;100927.39;;;2.16;68.87
65872;BME280;52653;50.080;21.992;2023-02-12T08:42:22;100930.17;;;2.16;68.27
65872;BME280;52653;50.080;21.992;2023-02-12T08:45:16;100928.77;;;2.19;68.76
65872;BME280;52653;50.080;21.992;2023-02-12T08:48:09;100935.73;;;2.23;68.64
65872;BME280;52653;50.080;21.992;2023-02-12T08:51:07;100933.91;;;2.28;68.62
65872;BME280;52653;50.080;21.992;2023-02-12T08:53:50;100932.19;;;2.34;68.57
65872;BME280;52653;50.080;21.992;2023-02-12T08:56:43;100941.17;;;2.41;68.51
65872;BME280;52653;50.080;21.992;2023-02-12T08:59:36;100939.93;;;2.37;67.70
65872;BME280;52653;50.080;21.992;2023-02-12T09:02:29;100938.23;;;2.38;68.01
65872;BME280;52653;50.080;21.992;2023-02-12T09:05:06;100943.60;;;2.38;68.35
65872;BME280;52653;50.080;21.992;2023-02-12T09:07:59;100950.55;;;2.48;68.51
65872;BME280;52653;50.080;21.992;2023-02-12T09:10:52;100956.58;;;2.57;68.28
65872;BME280;52653;50.080;21.992;2023-02-12T09:13:47;100964.31;;;2.69;68.40
65872;BME280;52653;50.080;21.992;2023-02-12T09:16:44;100973.30;;;2.79;67.80
65872;BME280;52653;50.080;21.992;2023-02-12T09:19:38;100971.48;;;2.74;65.92
65872;BME280;52653;50.080;21.992;2023-02-12T09:22:31;100972.94;;;2.72;65.72
65872;BME280;52653;50.080;21.992;2023-02-12T09:25:28;100981.09;;;2.75;66.08
65872;BME280;52653;50.080;21.992;2023-02-12T09:28:30;100980.11;;;2.86;66.52
65872;BME280;52653;50.080;21.992;2023-02-12T09:31:24;100984.63;;;2.93;65.19
65872;BME280;52653;50.080;21.992;2023-02-12T09:34:19;100991.09;;;2.94;64.32
65872;BME280;52653;50.080;21.992;2023-02-12T09:37:12;100993.82;;;2.93;64.13
65872;BME280;52653;50.080;21.992;2023-02-12T09:40:09;100995.03;;;2.90;63.62
65872;BME280;52653;50.080;21.992;2023-02-12T09:43:15;100998.67;;;2.97;64.01
65872;BME280;52653;50.080;21.992;2023-02-12T09:46:14;100998.45;;;3.09;64.36
65872;BME280;52653;50.080;21.992;2023-02-12T09:49:17;100995.84;;;3.22;63.76
65872;BME280;52653;50.080;21.992;2023-02-12T09:52:15;100994.57;;;3.32;63.64
65872;BME280;52653;50.080;21.992;2023-02-12T09:55:08;101001.09;;;3.37;62.27
65872;BME280;52653;50.080;21.992;2023-02-12T09:58:10;101003.73;;;3.45;63.17
65872;BME280;52653;50.080;21.992;2023-02-12T10:01:11;101005.13;;;3.53;62.42
65872;BME280;52653;50.080;21.992;2023-02-12T10:04:05;101004.05;;;3.52;61.57
65872;BME280;52653;50.080;21.992;2023-02-12T10:07:04;101004.21;;;3.48;61.13
65872;BME280;52653;50.080;21.992;2023-02-12T10:10:19;100997.11;;;3.48;61.36
65872;BME280;52653;50.080;21.992;2023-02-12T10:13:26;100996.27;;;3.56;61.52
65872;BME280;52653;50.080;21.992;2023-02-12T10:16:35;101000.86;;;3.72;61.98
65872;BME280;52653;50.080;21.992;2023-02-12T10:19:42;100996.61;;;3.84;61.27
65872;BME280;52653;50.080;21.992;2023-02-12T10:22:46;101002.23;;;4.00;61.62
65872;BME280;52653;50.080;21.992;2023-02-12T10:25:50;101004.44;;;4.18;61.33
65872;BME280;52653;50.080;21.992;2023-02-12T10:28:46;101010.42;;;4.34;60.65
65872;BME280;52653;50.080;21.992;2023-02-12T10:31:41;101016.38;;;4.42;59.25
65872;BME280;52653;50.080;21.992;2023-02-12T10:34:37;101017.60;;;4.35;57.80
65872;BME280;52653;50.080;21.992;2023-02-12T10:37:34;101024.65;;;4.26;57.99
65872;BME280;52653;50.080;21.992;2023-02-12T10:40:31;101022.30;;;4.36;59.07
65872;BME280;52653;50.080;21.992;2023-02-12T10:43:18;101031.77;;;4.45;58.33
65872;BME280;52653;50.080;21.992;2023-02-12T10:46:14;101035.70;;;4.47;58.08
65872;BME280;52653;50.080;21.992;2023-02-12T10:49:09;101036.40;;;4.47;57.84
65872;BME280;52653;50.080;21.992;2023-02-12T10:52:14;101032.33;;;4.49;58.43
65872;BME280;52653;50.080;21.992;2023-02-12T10:55:01;101029.10;;;4.66;58.89
65872;BME280;52653;50.080;21.992;2023-02-12T10:57:55;101030.66;;;4.66;58.68
65872;BME280;52653;50.080;21.992;2023-02-12T11:00:57;101026.60;;;4.65;58.50
65872;BME280;52653;50.080;21.992;2023-02-12T11:03:52;101028.27;;;4.56;58.38
65872;BME280;52653;50.080;21.992;2023-02-12T11:07:11;101034.41;;;4.42;57.67
65872;BME280;52653;50.080;21.992;2023-02-12T11:10:24;101037.25;;;4.43;58.19
65872;BME280;52653;50.080;21.992;2023-02-12T11:13:25;101041.19;;;4.38;57.92
65872;BME280;52653;50.080;21.992;2023-02-12T11:16:15;101034.59;;;4.38;58.91
65872;BME280;52653;50.080;21.992;2023-02-12T11:19:23;101040.16;;;4.42;58.41
65872;BME280;52653;50.080;21.992;2023-02-12T11:22:16;101037.61;;;4.43;57.62
65872;BME280;52653;50.080;21.992;2023-02-12T11:25:23;101036.48;;;4.49;57.97
65872;BME280;52653;50.080;21.992;2023-02-12T11:28:19;101038.47;;;4.51;57.37
65872;BME280;52653;50.080;21.992;2023-02-12T11:31:21;101034.65;;;4.44;57.79
65872;BME280;52653;50.080;21.992;2023-02-12T11:34:17;101037.34;;;4.45;58.80
65872;BME280;52653;50.080;21.992;2023-02-12T11:37:16;101036.23;;;4.44;58.35
65872;BME280;52653;50.080;21.992;2023-02-12T11:40:03;101036.17;;;4.39;57.77
65872;BME280;52653;50.080;21.992;2023-02-12T11:42:57;101032.58;;;4.40;57.81
65872;BME280;52653;50.080;21.992;2023-02-12T11:45:52;101032.36;;;4.39;57.46
65872;BME280;52653;50.080;21.992;2023-02-12T11:48:47;101030.65;;;4.39;57.03
65872;BME280;52653;50.080;21.992;2023-02-12T11:51:34;101033.77;;;4.39;56.87
65872;BME280;52653;50.080;21.992;2023-02-12T11:54:20;101041.77;;;4.43;57.13
65872;BME280;52653;50.080;21.992;2023-02-12T11:57:38;101046.05;;;4.45;57.50
65872;BME280;52653;50.080;21.992;2023-02-12T12:00:31;101057.98;;;4.44;58.14
65872;BME280;52653;50.080;21.992;2023-02-12T12:03:29;101065.65;;;4.34;56.74
65872;BME280;52653;50.080;21.992;2023-02-12T12:06:30;101058.92;;;4.27;57.20
65872;BME280;52653;50.080;21.992;2023-02-12T12:09:27;101049.19;;;4.24;57.36
65872;BME280;52653;50.080;21.992;2023-02-12T12:12:27;101049.95;;;4.25;58.29
65872;BME280;52653;50.080;21.992;2023-02-12T12:15:25;101049.27;;;4.22;58.44
65872;BME280;52653;50.080;21.992;2023-02-12T12:18:44;101046.07;;;4.13;58.45
65872;BME280;52653;50.080;21.992;2023-02-12T12:22:03;101052.90;;;4.00;58.62
65872;BME280;52653;50.080;21.992;2023-02-12T12:24:59;101058.46;;;3.82;58.56
65872;BME280;52653;50.080;21.992;2023-02-12T12:28:04;101050.08;;;3.74;59.12
65872;BME280;52653;50.080;21.992;2023-02-12T12:31:07;101049.92;;;3.74;59.79
65872;BME280;52653;50.080;21.992;2023-02-12T12:34:07;101050.11;;;3.75;60.07
65872;BME280;52653;50.080;21.992;2023-02-12T12:37:23;101047.89;;;3.79;59.86
65872;BME280;52653;50.080;21.992;2023-02-12T12:40:30;101051.33;;;3.78;59.53
65872;BME280;52653;50.080;21.992;2023-02-12T12:43:44;101045.45;;;3.79;59.89
65872;BME280;52653;50.080;21.992;2023-02-12T12:47:06;101039.67;;;3.85;60.80
65872;BME280;52653;50.080;21.992;2023-02-12T12:50:26;101041.31;;;3.76;59.75
65872;BME280;52653;50.080;21.992;2023-02-12T12:53:56;101046.47;;;3.68;60.39
65872;BME280;52653;50.080;21.992;2023-02-12T12:57:00;101048.02;;;3.74;60.24
65872;BME280;52653;50.080;21.992;2023-02-12T13:00:05;101045.13;;;3.79;59.58
65872;BME280;52653;50.080;21.992;2023-02-12T13:03:29;101043.16;;;3.78;59.44
65872;BME280;52653;50.080;21.992;2023-02-12T13:06:42;101045.93;;;3.78;59.04
65872;BME280;52653;50.080;21.992;2023-02-12T13:10:02;101049.23;;;3.81;59.51
65872;BME280;52653;50.080;21.992;2023-02-12T13:13:14;101047.80;;;3.84;59.83
65872;BME280;52653;50.080;21.992;2023-02-12T13:16:17;101057.60;;;3.72;59.98
65872;BME280;52653;50.080;21.992;2023-02-12T13:19:11;101058.48;;;3.65;60.98
65872;BME280;52653;50.080;21.992;2023-02-12T13:22:12;101052.59;;;3.55;60.85
65872;BME280;52653;50.080;21.992;2023-02-12T13:25:19;101053.06;;;3.46;61.67
65872;BME280;52653;50.080;21.992;2023-02-12T13:28:17;101054.99;;;3.41;62.20
65872;BME280;52653;50.080;21.992;2023-02-12T13:31:18;101052.77;;;3.37;62.23
65872;BME280;52653;50.080;21.992;2023-02-12T13:34:23;101052.20;;;3.23;61.87
65872;BME280;52653;50.080;21.992;2023-02-12T13:37:28;101051.15;;;3.16;62.37
65872;BME280;52653;50.080;21.992;2023-02-12T13:40:17;101056.75;;;3.11;62.19
65872;BME280;52653;50.080;21.992;2023-02-12T13:43:11;101061.25;;;2.97;61.82
65872;BME280;52653;50.080;21.992;2023-02-12T13:45:54;101063.30;;;2.93;62.42
65872;BME280;52653;50.080;21.992;2023-02-12T13:48:55;101062.83;;;2.88;62.44
65872;BME280;52653;50.080;21.992;2023-02-12T13:51:55;101068.02;;;2.87;62.50
65872;BME280;52653;50.080;21.992;2023-02-12T13:54:56;101070.80;;;2.94;62.05
65872;BME280;52653;50.080;21.992;2023-02-12T14:01:09;101075.57;;;2.86;61.80
65872;BME280;52653;50.080;21.992;2023-02-12T14:04:20;101065.98;;;2.85;61.89
65872;BME280;52653;50.080;21.992;2023-02-12T14:07:16;101071.45;;;2.83;62.41
65872;BME280;52653;50.080;21.992;2023-02-12T14:10:24;101072.01;;;2.71;61.59
65872;BME280;52653;50.080;21.992;2023-02-12T14:13:23;101076.23;;;2.60;61.88
65872;BME280;52653;50.080;21.992;2023-02-12T14:16:40;101072.23;;;2.40;61.87
65872;BME280;52653;50.080;21.992;2023-02-12T14:19:40;101069.89;;;2.26;62.56
65872;BME280;52653;50.080;21.992;2023-02-12T14:26:02;101061.28;;;2.03;63.62
65872;BME280;52653;50.080;21.992;2023-02-12T14:29:00;101065.20;;;1.92;63.81
65872;BME280;52653;50.080;21.992;2023-02-12T14:31:55;101066.66;;;1.84;64.52
65872;BME280;52653;50.080;21.992;2023-02-12T14:34:47;101065.99;;;1.79;64.56
65872;BME280;52653;50.080;21.992;2023-02-12T14:37:41;101070.07;;;1.74;64.68
65872;BME280;52653;50.080;21.992;2023-02-12T14:40:43;101072.07;;;1.67;65.12
65872;BME280;52653;50.080;21.992;2023-02-12T14:43:38;101078.42;;;1.69;65.80
65872;BME280;52653;50.080;21.992;2023-02-12T14:46:47;101082.08;;;1.72;66.24
65872;BME280;52653;50.080;21.992;2023-02-12T14:49:37;101083.52;;;1.80;66.23
65872;BME280;52653;50.080;21.992;2023-02-12T14:52:36;101081.58;;;1.85;66.32
65872;BME280;52653;50.080;21.992;2023-02-12T14:55:33;101081.61;;;1.92;66.00
65872;BME280;52653;50.080;21.992;2023-02-12T14:58:28;101080.81;;;1.93;65.55
65872;BME280;52653;50.080;21.992;2023-02-12T15:01:30;101080.88;;;1.88;65.67
65872;BME280;52653;50.080;21.992;2023-02-12T15:04:15;101075.48;;;1.81;65.93
65872;BME280;52653;50.080;21.992;2023-02-12T15:07:13;101081.49;;;1.71;66.07
65872;BME280;52653;50.080;21.992;2023-02-12T15:10:14;101085.59;;;1.62;66.66
65872;BME280;52653;50.080;21.992;2023-02-12T15:13:22;101090.10;;;1.53;66.77
65872;BME280;52653;50.080;21.992;2023-02-12T15:16:21;101092.89;;;1.44;67.01
65872;BME280;52653;50.080;21.992;2023-02-12T15:19:23;101088.69;;;1.35;67.17
65872;BME280;52653;50.080;21.992;2023-02-12T15:22:25;101085.12;;;1.27;67.42
65872;BME280;52653;50.080;21.992;2023-02-12T15:25:30;101087.73;;;1.19;67.65
65872;BME280;52653;50.080;21.992;2023-02-12T15:28:27;101087.80;;;1.11;68.19
65872;BME280;52653;50.080;21.992;2023-02-12T15:31:39;101086.30;;;1.04;68.20
65872;BME280;52653;50.080;21.992;2023-02-12T15:34:36;101081.27;;;1.01;68.43
65872;BME280;52653;50.080;21.992;2023-02-12T15:37:32;101073.66;;;1.01;68.41